Time;durP1;ratioP1;P1;durP2;ratioP2;P2;SDS_P1;SDS_P2;PMS_P1;PMS_P2;Temp;Humidity;BMP_temperature;BMP_pressure;BME280_temperature;BME280_humidity;BME280_pressure;Samples;Min_cycle;Max_cycle;Signal;HPM_P1;HPM_P2
2023/12/24 00:02:29;;;;;;;0.75;0.40;;;10.00;54.50;;;;;;20817;6706;275033;-82
2023/12/24 00:05:06;;;;;;;0.53;0.30;;;10.50;53.40;;;;;;20833;6707;304732;-82
2023/12/24 00:07:41;;;;;;;0.37;0.37;;;10.50;53.40;;;;;;20743;6734;304305;-82
2023/12/24 00:10:17;;;;;;;0.20;0.20;;;10.70;53.00;;;;;;20915;6722;117952;-83
2023/12/24 00:12:52;;;;;;;0.50;0.40;;;10.40;53.30;;;;;;21047;6704;116754;-83
2023/12/24 00:15:28;;;;;;;0.45;0.45;;;10.10;54.00;;;;;;20822;6724;313955;-83
2023/12/24 00:18:04;;;;;;;0.87;0.43;;;10.20;54.00;;;;;;21020;6724;117709;-83
2023/12/24 00:20:39;;;;;;;0.60;0.40;;;10.10;54.20;;;;;;20696;6724;306450;-83
2023/12/24 00:23:15;;;;;;;0.70;0.40;;;10.20;54.10;;;;;;20740;6736;286298;-83
2023/12/24 00:25:52;;;;;;;0.35;0.35;;;10.40;53.40;;;;;;20786;6721;305475;-83
2023/12/24 00:28:27;;;;;;;0.30;0.30;;;10.70;53.10;;;;;;20995;6714;117383;-82
2023/12/24 00:31:03;;;;;;;0.30;0.30;;;10.50;53.20;;;;;;20606;6714;307457;-83
2023/12/24 00:33:39;;;;;;;0.40;0.32;;;10.50;53.10;;;;;;20772;6737;330087;-82
2023/12/24 00:36:15;;;;;;;0.70;0.40;;;10.90;52.40;;;;;;20754;6724;276307;-82
2023/12/24 00:38:50;;;;;;;0.97;0.30;;;10.80;52.20;;;;;;20809;6709;304956;-82
2023/12/24 00:41:30;;;;;;;0.97;0.40;;;11.00;51.90;;;;;;20765;6790;117768;-82
2023/12/24 00:44:04;;;;;;;0.53;0.30;;;10.80;52.30;;;;;;20927;6734;118652;-82
2023/12/24 00:46:40;;;;;;;0.40;0.40;;;10.40;52.90;;;;;;21001;6719;117664;-82
2023/12/24 00:49:15;;;;;;;0.40;0.40;;;10.10;53.40;;;;;;21016;6704;116735;-82
2023/12/24 00:51:53;;;;;;;0.30;0.30;;;9.90;55.00;;;;;;20820;6704;304503;-82
2023/12/24 00:54:28;;;;;;;0.40;0.40;;;10.00;53.90;;;;;;20819;6704;306121;-82
2023/12/24 00:57:04;;;;;;;0.30;0.30;;;10.30;53.20;;;;;;21064;6692;118729;-82
2023/12/24 00:59:39;;;;;;;0.52;0.40;;;10.30;53.30;;;;;;20654;6741;308206;-83
2023/12/24 01:02:15;;;;;;;1.20;0.40;;;10.30;53.10;;;;;;20763;6729;276161;-83
2023/12/24 01:04:50;;;;;;;0.50;0.40;;;10.60;52.70;;;;;;20793;6724;304384;-83
2023/12/24 01:07:26;;;;;;;0.20;0.20;;;10.70;52.20;;;;;;21008;6709;117154;-82
2023/12/24 01:10:02;;;;;;;0.50;0.50;;;10.60;52.50;;;;;;20757;6709;306427;-82
2023/12/24 01:12:38;;;;;;;0.40;0.40;;;10.40;52.70;;;;;;21074;6709;116918;-82
2023/12/24 01:15:13;;;;;;;0.33;0.33;;;10.40;52.70;;;;;;20987;6724;118082;-82
2023/12/24 01:17:50;;;;;;;2.37;0.50;;;9.90;54.80;;;;;;20986;6718;117283;-83
2023/12/24 01:20:25;;;;;;;0.40;0.40;;;9.90;54.80;;;;;;20615;6731;308669;-82
2023/12/24 01:23:03;;;;;;;0.40;0.40;;;10.30;53.20;;;;;;20852;6699;274700;-83
2023/12/24 01:25:37;;;;;;;0.40;0.40;;;10.30;53.20;;;;;;20848;6699;303395;-83
2023/12/24 01:28:13;;;;;;;0.30;0.30;;;10.50;52.40;;;;;;20831;6699;274667;-83
2023/12/24 01:30:52;;;;;;;0.43;0.30;;;10.80;52.10;;;;;;20713;6699;306975;-83
2023/12/24 01:33:25;;;;;;;0.30;0.30;;;10.70;52.10;;;;;;21061;6699;117932;-83
2023/12/24 01:36:00;;;;;;;0.40;0.30;;;10.70;52.10;;;;;;21044;6699;117735;-83
2023/12/24 01:38:36;;;;;;;0.40;0.40;;;10.40;52.90;;;;;;21062;6699;120158;-82
2023/12/24 01:41:12;;;;;;;0.45;0.45;;;10.10;53.50;;;;;;20643;6710;307745;-83
2023/12/24 01:43:47;;;;;;;0.50;0.50;;;10.10;53.30;;;;;;20849;6699;303605;-81
2023/12/24 01:46:23;;;;;;;0.40;0.40;;;10.40;52.70;;;;;;21046;6699;117234;-81
2023/12/24 01:48:59;;;;;;;0.88;0.50;;;10.40;52.80;;;;;;20867;6699;275134;-82
2023/12/24 01:51:35;;;;;;;0.40;0.40;;;10.40;52.70;;;;;;21057;6699;116778;-83
2023/12/24 01:54:10;;;;;;;1.30;0.43;;;10.30;53.00;;;;;;20829;6699;274582;-82
2023/12/24 01:56:47;;;;;;;0.40;0.40;;;10.30;52.80;;;;;;21062;6699;117719;-83
2023/12/24 01:59:23;;;;;;;0.50;0.50;;;10.30;53.00;;;;;;20819;6699;305553;-83
2023/12/24 02:01:58;;;;;;;0.60;0.60;;;10.30;52.80;;;;;;21016;6709;117874;-83
2023/12/24 02:04:34;;;;;;;0.50;0.40;;;10.20;52.90;;;;;;20779;6724;306057;-83
2023/12/24 02:07:09;;;;;;;0.40;0.40;;;10.30;52.80;;;;;;20843;6724;298794;-83
2023/12/24 02:09:45;;;;;;;0.40;0.40;;;10.50;52.40;;;;;;20977;6709;116676;-83
2023/12/24 02:12:22;;;;;;;0.37;0.30;;;10.40;52.70;;;;;;21036;6699;118322;-83
2023/12/24 02:14:57;;;;;;;0.47;0.47;;;10.20;53.30;;;;;;21065;6699;117827;-83
2023/12/24 02:17:34;;;;;;;0.50;0.50;;;10.00;54.10;;;;;;20853;6699;278525;-83
2023/12/24 02:20:09;;;;;;;0.53;0.53;;;10.00;53.50;;;;;;20735;6699;298053;-83
2023/12/24 02:22:45;;;;;;;0.43;0.40;;;10.30;53.00;;;;;;21061;6699;117168;-83
2023/12/24 02:25:21;;;;;;;0.37;0.37;;;10.30;53.10;;;;;;21040;6699;118115;-83
2023/12/24 02:28:10;;;;;;;0.45;0.40;;;10.00;53.50;;;;;;20845;6699;304397;-81
2023/12/24 02:30:45;;;;;;;0.50;0.40;;;10.10;53.30;;;;;;20705;6773;117744;-83
2023/12/24 02:33:22;;;;;;;0.95;0.43;;;10.10;53.40;;;;;;20800;6709;334292;-83
2023/12/24 02:35:59;;;;;;;0.40;0.40;;;10.10;53.20;;;;;;21024;6714;118542;-83
2023/12/24 02:38:34;;;;;;;0.57;0.50;;;10.10;53.20;;;;;;20988;6722;116974;-83
2023/12/24 02:41:10;;;;;;;0.33;0.33;;;9.90;54.60;;;;;;20844;6709;117947;-83
2023/12/24 02:43:45;;;;;;;0.50;0.50;;;9.80;55.10;;;;;;20772;6720;334535;-83
2023/12/24 02:46:21;;;;;;;0.37;0.37;;;10.00;53.80;;;;;;21021;6591;118007;-79
2023/12/24 02:48:56;;;;;;;0.40;0.40;;;10.00;53.80;;;;;;20844;6714;333647;-79
2023/12/24 02:51:32;;;;;;;0.37;0.37;;;10.10;53.20;;;;;;21071;6714;116790;-80
2023/12/24 02:54:08;;;;;;;0.50;0.50;;;10.10;53.20;;;;;;21066;6714;117712;-78
2023/12/24 02:56:43;;;;;;;0.30;0.30;;;10.00;53.60;;;;;;21083;6714;116487;-79
2023/12/24 02:59:19;;;;;;;1.30;0.40;;;9.80;55.00;;;;;;21051;6714;116685;-79
2023/12/24 03:01:54;;;;;;;1.07;0.50;;;9.70;55.40;;;;;;21032;6724;118446;-80
2023/12/24 03:04:30;;;;;;;0.50;0.50;;;9.60;55.80;;;;;;20722;6742;336957;-80
2023/12/24 03:07:06;;;;;;;0.60;0.60;;;10.20;53.50;;;;;;20763;6724;275784;-80
2023/12/24 03:09:43;;;;;;;0.50;0.50;;;10.20;53.40;;;;;;20929;6722;116963;-79
2023/12/24 03:12:19;;;;;;;0.40;0.40;;;10.20;53.50;;;;;;21019;6707;191156;-80
2023/12/24 03:14:55;;;;;;;0.60;0.60;;;10.20;53.40;;;;;;20832;6714;305235;-80
2023/12/24 03:17:31;;;;;;;0.60;0.60;;;10.10;53.30;;;;;;20829;6714;304210;-80
2023/12/24 03:20:06;;;;;;;0.43;0.43;;;10.40;52.70;;;;;;20906;6714;118487;-80
2023/12/24 03:22:45;;;;;;;0.50;0.50;;;10.40;52.80;;;;;;20992;6732;117792;-80
2023/12/24 03:25:18;;;;;;;0.60;0.60;;;10.20;53.30;;;;;;21016;6716;117201;-80
2023/12/24 03:27:55;;;;;;;0.53;0.53;;;9.80;55.10;;;;;;20962;6727;116110;-79
2023/12/24 03:30:31;;;;;;;0.53;0.50;;;9.70;55.50;;;;;;20937;6713;117117;-79
2023/12/24 03:33:07;;;;;;;1.10;0.70;;;9.70;55.40;;;;;;21081;6709;116732;-80
2023/12/24 03:35:43;;;;;;;0.60;0.60;;;9.60;55.80;;;;;;21082;6709;116709;-80
2023/12/24 03:38:20;;;;;;;0.60;0.60;;;9.40;56.60;;;;;;21059;6709;117043;-80
2023/12/24 03:40:54;;;;;;;0.60;0.60;;;9.40;56.10;;;;;;20721;6709;276487;-80
2023/12/24 03:43:31;;;;;;;0.77;0.63;;;10.10;54.30;;;;;;20868;6709;276591;-80
2023/12/24 03:46:07;;;;;;;1.70;0.50;;;10.10;53.70;;;;;;21067;6709;118004;-80
2023/12/24 03:48:43;;;;;;;0.50;0.50;;;10.10;53.50;;;;;;21086;6709;118180;-80
2023/12/24 03:51:20;;;;;;;0.70;0.70;;;10.00;53.90;;;;;;20682;6725;306477;-79
2023/12/24 03:53:56;;;;;;;0.50;0.50;;;10.10;53.60;;;;;;21078;6724;117335;-79
2023/12/24 03:56:31;;;;;;;0.57;0.57;;;10.10;53.60;;;;;;20975;6724;118335;-79
2023/12/24 03:59:07;;;;;;;0.50;0.50;;;9.90;55.00;;;;;;21001;6717;117267;-80
2023/12/24 04:01:42;;;;;;;0.60;0.60;;;9.80;55.40;;;;;;20808;6704;277128;-80
2023/12/24 04:04:18;;;;;;;1.30;0.65;;;9.90;55.00;;;;;;20836;6697;303150;-80
2023/12/24 04:06:53;;;;;;;0.57;0.57;;;10.30;53.30;;;;;;21085;6688;116498;-80
2023/12/24 04:09:31;;;;;;;0.60;0.60;;;10.30;53.30;;;;;;20962;6691;119083;-81
2023/12/24 04:12:05;;;;;;;0.52;0.52;;;10.10;53.70;;;;;;20769;6701;325982;-80
2023/12/24 04:14:40;;;;;;;0.60;0.60;;;10.20;53.50;;;;;;20896;6747;118079;-80
2023/12/24 04:17:16;;;;;;;0.50;0.50;;;10.20;53.50;;;;;;21011;6724;116801;-80
2023/12/24 04:19:51;;;;;;;0.67;0.67;;;10.00;53.80;;;;;;20673;6725;327485;-80
2023/12/24 04:22:27;;;;;;;0.63;0.57;;;10.10;53.60;;;;;;20864;6746;116923;-80
2023/12/24 04:25:03;;;;;;;0.60;0.60;;;10.10;53.50;;;;;;20963;6722;116865;-80
2023/12/24 04:27:40;;;;;;;1.10;0.70;;;10.00;53.90;;;;;;20778;6717;305612;-80
2023/12/24 04:30:15;;;;;;;1.97;0.67;;;10.10;53.60;;;;;;20929;6702;117413;-80
2023/12/24 04:32:51;;;;;;;0.60;0.60;;;10.10;53.60;;;;;;21063;6702;116693;-80
2023/12/24 04:35:26;;;;;;;1.35;0.70;;;10.00;54.00;;;;;;20787;6717;305124;-79
2023/12/24 04:38:03;;;;;;;1.40;0.70;;;10.40;53.30;;;;;;20737;6732;275834;-80
2023/12/24 04:40:39;;;;;;;0.50;0.50;;;10.40;53.20;;;;;;20915;6712;117046;-80
2023/12/24 04:43:15;;;;;;;0.57;0.57;;;10.40;53.10;;;;;;20999;6712;116921;-80
2023/12/24 04:45:51;;;;;;;0.52;0.50;;;10.20;53.50;;;;;;20863;6697;304214;-80
2023/12/24 04:48:27;;;;;;;0.60;0.60;;;10.30;53.30;;;;;;20667;6748;277564;-79
2023/12/24 04:51:04;;;;;;;0.75;0.75;;;10.80;52.10;;;;;;20476;6764;308758;-77
2023/12/24 04:53:39;;;;;;;1.73;0.57;;;10.80;52.10;;;;;;20912;6745;117035;-79
2023/12/24 04:56:18;;;;;;;1.50;0.57;;;10.70;52.20;;;;;;20906;6758;117193;-80
2023/12/24 04:58:54;;;;;;;0.63;0.63;;;10.40;52.70;;;;;;20978;6722;116844;-80
2023/12/24 05:01:30;;;;;;;0.90;0.90;;;10.20;53.20;;;;;;20588;6778;323057;-80
2023/12/24 05:04:06;;;;;;;0.50;0.50;;;10.30;53.20;;;;;;20807;6707;306316;-80
2023/12/24 05:06:43;;;;;;;1.07;0.53;;;10.50;52.50;;;;;;20993;6737;117124;-79
2023/12/24 05:09:21;;;;;;;0.60;0.60;;;10.50;52.50;;;;;;20912;6737;117033;-80
2023/12/24 05:11:53;;;;;;;0.50;0.50;;;10.30;53.00;;;;;;20758;6722;333979;-80
2023/12/24 05:14:29;;;;;;;0.60;0.60;;;10.40;52.70;;;;;;20760;6722;276940;-80
2023/12/24 05:17:05;;;;;;;1.10;0.60;;;10.90;51.70;;;;;;20756;6731;275276;-79
2023/12/24 05:19:41;;;;;;;0.40;0.40;;;10.90;51.70;;;;;;20888;6732;117508;-80
2023/12/24 05:22:17;;;;;;;0.70;0.50;;;10.70;51.80;;;;;;20763;6717;334412;-80
2023/12/24 05:24:52;;;;;;;0.43;0.40;;;10.70;51.80;;;;;;20940;6737;116936;-80
2023/12/24 05:27:28;;;;;;;0.50;0.50;;;10.60;52.00;;;;;;21063;6702;116891;-80
2023/12/24 05:30:04;;;;;;;0.30;0.30;;;10.10;53.00;;;;;;20932;6702;117884;-80
2023/12/24 05:32:40;;;;;;;0.50;0.50;;;10.00;52.90;;;;;;20759;6722;334818;-79
2023/12/24 05:35:16;;;;;;;0.60;0.60;;;10.20;52.80;;;;;;20757;6727;306641;-79
2023/12/24 05:37:51;;;;;;;0.50;0.50;;;10.40;52.10;;;;;;21027;6707;116993;-80
2023/12/24 05:40:29;;;;;;;1.13;0.50;;;10.40;52.20;;;;;;20828;6724;117835;-79
2023/12/24 05:43:03;;;;;;;1.45;0.68;;;10.10;52.60;;;;;;20760;6730;321315;-81
2023/12/24 05:45:38;;;;;;;0.40;0.40;;;10.20;52.60;;;;;;20948;6739;117012;-78
2023/12/24 05:48:17;;;;;;;0.83;0.40;;;10.10;52.70;;;;;;20965;6722;117940;-79
2023/12/24 05:50:50;;;;;;;0.40;0.40;;;9.70;54.70;;;;;;20809;6725;117669;-80
2023/12/24 05:53:26;;;;;;;0.50;0.50;;;9.70;54.70;;;;;;20986;6725;116628;-80
2023/12/24 05:56:01;;;;;;;0.50;0.50;;;9.60;55.20;;;;;;20920;6740;117153;-80
2023/12/24 05:58:37;;;;;;;0.60;0.60;;;9.50;55.60;;;;;;20769;6725;334838;-80
2023/12/24 06:01:13;;;;;;;0.73;0.50;;;9.70;55.40;;;;;;20553;6725;277969;-79
2023/12/24 06:03:49;;;;;;;0.63;0.50;;;10.10;53.80;;;;;;20973;6725;116754;-79
2023/12/24 06:06:25;;;;;;;0.50;0.50;;;10.20;53.70;;;;;;20744;6725;334713;-80
2023/12/24 06:09:00;;;;;;;0.40;0.40;;;10.30;53.40;;;;;;20791;6712;275786;-79
2023/12/24 06:11:37;;;;;;;0.50;0.50;;;10.50;52.90;;;;;;21012;6712;118188;-79
2023/12/24 06:14:12;;;;;;;0.50;0.50;;;10.50;52.80;;;;;;21023;6712;117638;-79
2023/12/24 06:16:50;;;;;;;0.52;0.50;;;10.30;53.40;;;;;;20814;6712;304788;-79
2023/12/24 06:19:25;;;;;;;0.70;0.70;;;10.40;53.20;;;;;;20773;6712;337435;-80
2023/12/24 06:22:01;;;;;;;0.50;0.50;;;10.70;52.80;;;;;;20992;6712;116807;-80
2023/12/24 06:24:36;;;;;;;0.60;0.60;;;10.60;52.80;;;;;;20761;6727;307080;-79
2023/12/24 06:27:11;;;;;;;0.50;0.50;;;10.70;52.90;;;;;;20719;6740;305651;-78
2023/12/24 06:29:51;;;;;;;0.60;0.60;;;11.10;52.30;;;;;;20507;6754;279623;-78
2023/12/24 06:32:23;;;;;;;1.27;0.60;;;11.10;52.30;;;;;;20830;6757;119097;-78
2023/12/24 06:35:00;;;;;;;0.50;0.50;;;10.60;53.00;;;;;;20953;6727;116854;-78
2023/12/24 06:37:35;;;;;;;0.43;0.37;;;10.60;52.90;;;;;;20913;6744;118006;-78
2023/12/24 06:40:11;;;;;;;0.60;0.60;;;10.30;53.50;;;;;;20843;6730;117581;-78
2023/12/24 06:42:48;;;;;;;0.90;0.60;;;10.10;53.90;;;;;;20754;6730;323014;-78
2023/12/24 06:45:23;;;;;;;0.63;0.63;;;10.30;54.10;;;;;;20918;6745;116887;-79
2023/12/24 06:48:02;;;;;;;0.82;0.60;;;10.30;53.90;;;;;;20753;6727;335364;-79
2023/12/24 06:50:35;;;;;;;0.43;0.40;;;10.40;53.80;;;;;;20829;6742;118013;-80
2023/12/24 06:53:10;;;;;;;0.73;0.50;;;10.40;53.80;;;;;;20812;6712;276994;-79
2023/12/24 06:55:48;;;;;;;0.50;0.50;;;10.50;53.80;;;;;;21021;6712;116599;-79
2023/12/24 06:58:24;;;;;;;0.40;0.40;;;10.50;53.80;;;;;;20791;6712;282296;-79
2023/12/24 07:00:59;;;;;;;0.73;0.50;;;10.60;53.50;;;;;;20693;6712;278566;-78
2023/12/24 07:03:35;;;;;;;0.40;0.40;;;10.90;53.10;;;;;;20806;6712;276960;-79
2023/12/24 07:06:11;;;;;;;0.60;0.50;;;11.10;52.60;;;;;;20973;6712;265381;-79
2023/12/24 07:08:48;;;;;;;1.37;0.40;;;10.70;53.10;;;;;;21027;6712;116742;-79
2023/12/24 07:11:23;;;;;;;0.60;0.40;;;10.70;53.10;;;;;;20791;6712;117633;-78
2023/12/24 07:13:59;;;;;;;1.60;0.40;;;10.40;53.60;;;;;;21026;6712;116993;-78
2023/12/24 07:16:34;;;;;;;0.40;0.40;;;10.20;54.00;;;;;;20804;6712;328918;-78
2023/12/24 07:19:10;;;;;;;0.20;0.20;;;10.40;54.00;;;;;;21009;6712;116839;-77
2023/12/24 07:21:46;;;;;;;0.37;0.20;;;10.30;54.20;;;;;;20958;6712;116878;-80
2023/12/24 07:24:23;;;;;;;0.35;0.30;;;10.20;54.10;;;;;;20704;6727;306962;-80
2023/12/24 07:26:59;;;;;;;0.30;0.30;;;10.40;54.00;;;;;;20879;6745;117071;-78
2023/12/24 07:29:34;;;;;;;0.30;0.30;;;10.40;53.90;;;;;;20666;6727;337074;-79
2023/12/24 07:32:11;;;;;;;0.40;0.40;;;10.50;53.60;;;;;;20948;6717;119035;-79
2023/12/24 07:34:46;;;;;;;0.50;0.50;;;10.50;53.60;;;;;;20935;6727;117577;-81
2023/12/24 07:37:23;;;;;;;0.33;0.33;;;10.30;53.90;;;;;;20908;6742;117293;-84
2023/12/24 07:39:59;;;;;;;0.30;0.30;;;10.20;54.30;;;;;;20627;6745;307475;-80
2023/12/24 07:42:38;;;;;;;0.30;0.30;;;10.40;54.20;;;;;;20796;6717;304384;-77
2023/12/24 07:45:13;;;;;;;0.73;0.40;;;10.70;53.60;;;;;;20908;6742;116849;-77
2023/12/24 07:47:49;;;;;;;0.30;0.30;;;10.70;53.40;;;;;;20750;6727;289403;-77
2023/12/24 07:50:24;;;;;;;0.37;0.27;;;10.80;53.20;;;;;;20697;6730;277613;-76
2023/12/24 07:53:00;;;;;;;0.30;0.30;;;11.10;52.50;;;;;;20881;6699;304424;-77
2023/12/24 07:55:37;;;;;;;0.70;0.40;;;11.40;52.00;;;;;;20801;6727;304478;-82
2023/12/24 07:58:16;;;;;;;0.20;0.20;;;11.50;51.40;;;;;;20944;6727;120834;-80
2023/12/24 08:00:48;;;;;;;0.20;0.20;;;11.40;51.70;;;;;;20640;6732;336592;-78
2023/12/24 08:03:24;;;;;;;0.37;0.37;;;11.40;51.60;;;;;;21007;6732;116951;-78
2023/12/24 08:05:59;;;;;;;1.93;1.83;;;11.20;51.80;;;;;;20928;6742;118333;-78
2023/12/24 08:08:35;;;;;;;1.43;1.40;;;11.00;52.40;;;;;;20925;6744;117413;-79
2023/12/24 08:11:11;;;;;;;0.83;0.30;;;10.70;52.80;;;;;;20889;6712;117094;-78
2023/12/24 08:13:49;;;;;;;0.87;0.87;;;10.50;53.20;;;;;;20913;6746;116916;-79
2023/12/24 08:16:22;;;;;;;1.00;0.87;;;10.40;53.60;;;;;;20933;6727;116577;-78
2023/12/24 08:18:59;;;;;;;0.50;0.50;;;10.30;53.80;;;;;;20949;6735;120330;-77
2023/12/24 08:21:34;;;;;;;0.30;0.30;;;10.20;54.00;;;;;;20940;6732;117462;-76
2023/12/24 08:24:10;;;;;;;0.40;0.40;;;10.20;54.30;;;;;;21002;6719;117868;-80
2023/12/24 08:26:45;;;;;;;0.45;0.45;;;10.10;54.50;;;;;;20773;6735;304321;-77
2023/12/24 08:29:21;;;;;;;0.57;0.57;;;10.30;53.90;;;;;;20631;6752;279428;-76
2023/12/24 08:31:57;;;;;;;0.30;0.30;;;11.20;52.50;;;;;;20721;6745;275813;-77
2023/12/24 08:34:33;;;;;;;0.57;0.57;;;11.10;52.50;;;;;;20792;6710;335912;-76
2023/12/24 08:37:09;;;;;;;0.50;0.50;;;11.40;51.90;;;;;;20932;6742;116163;-79
2023/12/24 08:39:45;;;;;;;0.40;0.40;;;11.40;51.90;;;;;;20917;6742;117416;-77
2023/12/24 08:42:22;;;;;;;0.90;0.20;;;10.90;52.90;;;;;;20994;6727;117074;-77
2023/12/24 08:44:58;;;;;;;0.20;0.20;;;10.90;52.90;;;;;;20922;6742;117470;-75
2023/12/24 08:47:38;;;;;;;0.30;0.30;;;10.60;53.70;;;;;;20984;6717;117680;-76
2023/12/24 08:50:11;;;;;;;0.20;0.20;;;10.50;54.00;;;;;;20840;6717;117656;-80
2023/12/24 08:52:47;;;;;;;0.50;0.50;;;10.50;54.00;;;;;;21004;6719;116827;-78
2023/12/24 08:55:23;;;;;;;1.27;1.27;;;10.50;54.30;;;;;;20830;6718;304411;-81
2023/12/24 08:57:58;;;;;;;0.60;0.60;;;10.70;54.00;;;;;;21000;6713;116794;-78
2023/12/24 09:00:34;;;;;;;1.03;1.03;;;10.80;53.70;;;;;;20858;6703;117544;-80
2023/12/24 09:03:10;;;;;;;2.83;2.63;;;10.80;54.00;;;;;;20762;6726;305831;-78
2023/12/24 09:05:46;;;;;;;2.80;2.70;;;11.00;53.60;;;;;;20815;6704;276640;-77
2023/12/24 09:08:22;;;;;;;1.23;1.23;;;11.70;52.40;;;;;;20829;6689;306868;-77
2023/12/24 09:11:00;;;;;;;1.50;1.40;;;11.70;52.40;;;;;;20767;6710;122401;-77
2023/12/24 09:13:36;;;;;;;2.20;2.10;;;11.70;52.40;;;;;;21005;6710;116719;-78
2023/12/24 09:16:10;;;;;;;2.50;2.40;;;11.50;52.50;;;;;;20761;6722;277950;-77
2023/12/24 09:18:45;;;;;;;3.47;3.17;;;11.50;52.50;;;;;;20982;6719;67633;-77
2023/12/24 09:21:21;;;;;;;6.77;5.93;;;11.50;52.60;;;;;;20899;6689;67196;-77
2023/12/24 09:23:58;;;;;;;2.72;2.55;;;11.40;53.60;;;;;;20810;6704;335614;-78
2023/12/24 09:26:32;;;;;;;0.80;0.80;;;11.50;52.80;;;;;;21032;6704;68008;-77
2023/12/24 09:29:08;;;;;;;4.47;4.07;;;11.50;52.80;;;;;;21018;6704;67655;-77
2023/12/24 09:31:43;;;;;;;1.92;1.83;;;11.40;53.10;;;;;;20814;6704;310398;-77
2023/12/24 09:34:19;;;;;;;3.10;3.00;;;11.60;53.00;;;;;;21058;6704;72656;-78
2023/12/24 09:36:56;;;;;;;1.17;1.17;;;11.60;52.90;;;;;;21058;6704;67790;-79
2023/12/24 09:39:33;;;;;;;0.40;0.40;;;11.50;53.30;;;;;;20792;6704;292481;-79
2023/12/24 09:42:09;;;;;;;0.50;0.50;;;11.60;53.00;;;;;;20842;6704;304679;-79
2023/12/24 09:44:46;;;;;;;0.40;0.40;;;12.00;52.60;;;;;;21063;6704;67976;-78
2023/12/24 09:47:21;;;;;;;0.50;0.50;;;12.00;52.50;;;;;;20836;6704;306862;-76
2023/12/24 09:50:00;;;;;;;0.50;0.50;;;12.10;52.10;;;;;;20976;6704;68143;-77
2023/12/24 09:52:37;;;;;;;0.40;0.40;;;12.10;52.30;;;;;;20990;6739;67911;-77
2023/12/24 09:55:10;;;;;;;0.50;0.50;;;11.80;52.50;;;;;;20920;6739;67117;-78
2023/12/24 09:57:38;;;;;;;0.70;0.70;;;11.70;53.00;;;;;;20892;6741;67928;-78
2023/12/24 10:00:08;;;;;;;0.40;0.40;;;11.50;53.20;;;;;;20615;6801;279080;-77
2023/12/24 10:02:30;;;;;;;1.00;0.60;;;11.70;53.30;;;;;;20615;6842;307174;-78
2023/12/24 10:04:55;;;;;;;0.37;0.37;;;11.90;52.60;;;;;;20832;6842;67876;-76
2023/12/24 10:07:21;;;;;;;0.30;0.30;;;12.00;52.50;;;;;;20821;6842;67382;-77
2023/12/24 10:09:50;;;;;;;0.30;0.30;;;11.80;52.80;;;;;;20784;6842;70630;-78
2023/12/24 10:12:16;;;;;;;0.77;0.50;;;11.60;53.10;;;;;;20732;6842;69764;-77
2023/12/24 10:14:42;;;;;;;0.43;0.43;;;11.40;53.40;;;;;;20780;6842;70587;-77
2023/12/24 10:17:07;;;;;;;0.77;0.70;;;11.30;53.80;;;;;;20741;6842;72317;-78
2023/12/24 10:19:34;;;;;;;0.35;0.35;;;11.10;54.40;;;;;;20787;6842;67869;-78
2023/12/24 10:22:08;;;;;;;0.40;0.40;;;11.10;54.40;;;;;;20789;6842;67853;-78
2023/12/24 10:24:41;;;;;;;0.27;0.27;;;11.00;54.70;;;;;;20799;6842;67712;-77
2023/12/24 10:27:06;;;;;;;0.40;0.30;;;11.00;54.90;;;;;;20758;6842;71030;-78
2023/12/24 10:29:36;;;;;;;0.50;0.50;;;11.00;55.20;;;;;;20497;6841;278493;-78
2023/12/24 10:32:02;;;;;;;0.30;0.30;;;11.60;54.70;;;;;;20560;6842;306578;-79
2023/12/24 10:34:29;;;;;;;0.40;0.40;;;11.60;54.60;;;;;;20801;6842;67701;-79
2023/12/24 10:36:53;;;;;;;0.50;0.50;;;11.70;54.30;;;;;;20579;6842;316605;-77
2023/12/24 10:39:24;;;;;;;0.50;0.50;;;11.80;53.90;;;;;;20574;6842;306800;-78
2023/12/24 10:41:44;;;;;;;0.47;0.47;;;12.10;53.40;;;;;;20777;6842;67995;-78
2023/12/24 10:44:10;;;;;;;0.60;0.60;;;12.10;53.30;;;;;;20591;6842;307748;-77
2023/12/24 10:46:36;;;;;;;0.62;0.50;;;12.10;53.20;;;;;;20798;6842;67938;-77
2023/12/24 10:49:01;;;;;;;0.90;0.67;;;12.00;53.20;;;;;;20800;6842;67844;-77
2023/12/24 10:51:27;;;;;;;0.80;0.80;;;11.80;53.50;;;;;;20588;6842;307968;-77
2023/12/24 10:53:52;;;;;;;1.20;1.20;;;11.90;53.60;;;;;;20803;6842;67355;-77
2023/12/24 10:56:18;;;;;;;1.80;1.70;;;11.80;53.80;;;;;;20793;6842;70511;-76
2023/12/24 10:58:51;;;;;;;2.07;1.30;;;11.70;53.70;;;;;;20751;6842;68683;-77
2023/12/24 11:01:17;;;;;;;0.87;0.87;;;11.60;54.10;;;;;;20489;6842;295290;-76
2023/12/24 11:03:43;;;;;;;0.70;0.70;;;11.80;54.30;;;;;;20786;6842;67824;-78
2023/12/24 11:06:09;;;;;;;0.68;0.68;;;11.80;54.30;;;;;;20537;6842;337116;-78
2023/12/24 11:08:36;;;;;;;1.10;1.10;;;12.00;54.40;;;;;;20766;6842;117822;-78
2023/12/24 11:11:07;;;;;;;0.50;0.50;;;11.90;54.30;;;;;;20727;6842;119175;-76
2023/12/24 11:13:40;;;;;;;1.30;1.20;;;11.90;54.60;;;;;;20748;6842;118955;-75
2023/12/24 11:16:06;;;;;;;1.53;1.50;;;11.70;54.70;;;;;;20524;6842;308743;-77
2023/12/24 11:18:43;;;;;;;1.10;1.10;;;12.00;54.60;;;;;;20747;6842;117706;-77
2023/12/24 11:21:12;;;;;;;0.80;0.80;;;12.00;54.60;;;;;;20700;6842;119917;-78
2023/12/24 11:23:40;;;;;;;0.50;0.50;;;12.00;54.80;;;;;;20561;6842;306928;-78
2023/12/24 11:26:32;;;;;;;0.88;0.88;;;12.00;54.80;;;;;;20553;6842;307143;-81
2023/12/24 11:31:48;;;;;;;0.50;0.50;;;12.40;54.00;;;;;;21280;6479;89032;-75
2023/12/24 11:34:14;;;;;;;0.50;0.50;;;12.30;54.20;;;;;;20731;6772;305803;-72
2023/12/24 11:36:39;;;;;;;1.30;1.30;;;12.40;54.30;;;;;;20694;6768;304731;-75
2023/12/24 11:39:07;;;;;;;3.95;3.75;;;12.90;53.30;;;;;;20707;6768;276560;-76
2023/12/24 11:41:31;;;;;;;1.45;1.35;;;12.90;53.30;;;;;;20615;6824;308866;-75
2023/12/24 11:43:58;;;;;;;3.25;3.05;;;13.30;52.30;;;;;;20642;6819;281287;-75
2023/12/24 11:46:23;;;;;;;2.10;1.50;;;13.20;52.10;;;;;;20790;6819;117530;-75
2023/12/24 11:48:49;;;;;;;0.68;0.68;;;13.10;52.20;;;;;;20809;6827;119218;-75
2023/12/24 11:51:14;;;;;;;3.65;3.35;;;12.80;52.60;;;;;;20811;6832;117558;-74
2023/12/24 11:53:40;;;;;;;1.30;1.20;;;12.60;53.30;;;;;;20595;6830;331228;-73
2023/12/24 11:56:10;;;;;;;2.67;2.47;;;12.60;53.30;;;;;;20781;6818;117093;-75
2023/12/24 11:58:35;;;;;;;2.93;2.73;;;12.60;53.30;;;;;;20859;6810;117585;-77
2023/12/24 12:01:02;;;;;;;1.93;1.83;;;12.40;53.60;;;;;;20666;6810;310541;-78
2023/12/24 12:03:27;;;;;;;2.90;2.70;;;12.50;53.90;;;;;;20830;6810;117033;-77
2023/12/24 12:05:52;;;;;;;3.42;3.12;;;12.50;53.70;;;;;;20844;6825;117005;-78
2023/12/24 12:08:19;;;;;;;2.85;2.60;;;12.40;54.00;;;;;;20859;6825;117820;-81
2023/12/24 12:10:44;;;;;;;5.00;4.20;;;12.20;54.00;;;;;;20898;6825;116332;-80
2023/12/24 12:13:10;;;;;;;2.20;2.00;;;12.10;54.30;;;;;;20870;6823;120162;-80
2023/12/24 12:15:36;;;;;;;1.77;1.60;;;12.00;54.50;;;;;;20845;6823;116059;-80
2023/12/24 12:18:01;;;;;;;1.80;1.70;;;11.90;54.70;;;;;;20845;6823;118298;-79
2023/12/24 12:20:27;;;;;;;4.33;3.23;;;11.80;54.90;;;;;;20826;6823;117660;-79
2023/12/24 12:22:53;;;;;;;4.77;4.10;;;11.80;55.40;;;;;;20823;6823;117443;-79
2023/12/24 12:25:19;;;;;;;2.20;2.00;;;11.80;55.40;;;;;;20838;6823;116980;-79
2023/12/24 12:27:44;;;;;;;4.43;3.80;;;11.70;55.30;;;;;;20843;6823;117695;-79
2023/12/24 12:30:11;;;;;;;3.97;3.20;;;11.70;55.50;;;;;;20819;6819;117530;-79
2023/12/24 12:32:36;;;;;;;6.07;5.23;;;11.70;55.40;;;;;;20853;6819;117211;-79
2023/12/24 12:35:02;;;;;;;5.93;5.15;;;11.70;55.50;;;;;;20637;6819;306624;-79
2023/12/24 12:37:30;;;;;;;4.07;3.67;;;12.30;55.10;;;;;;20647;6819;288290;-78
2023/12/24 12:39:55;;;;;;;2.47;2.30;;;12.30;55.10;;;;;;20635;6819;307749;-79
2023/12/24 12:42:21;;;;;;;0.55;0.55;;;12.60;54.30;;;;;;20628;6818;279688;-79
2023/12/24 12:44:47;;;;;;;0.80;0.80;;;12.90;53.80;;;;;;20860;6819;117641;-78
2023/12/24 12:47:13;;;;;;;1.30;1.30;;;12.50;53.80;;;;;;20858;6819;116979;-79
2023/12/24 12:49:38;;;;;;;3.30;3.10;;;12.50;53.70;;;;;;20639;6819;278405;-80
2023/12/24 12:52:04;;;;;;;2.20;2.10;;;12.60;54.00;;;;;;20618;6819;277408;-79
2023/12/24 12:54:31;;;;;;;0.60;0.60;;;12.70;53.50;;;;;;20855;6819;117127;-80
2023/12/24 12:56:57;;;;;;;0.60;0.60;;;12.60;53.40;;;;;;20855;6819;117601;-79
2023/12/24 12:59:21;;;;;;;1.23;1.23;;;12.40;54.40;;;;;;20631;6819;277076;-79
2023/12/24 13:01:47;;;;;;;0.90;0.90;;;12.40;54.00;;;;;;20634;6819;308812;-79
2023/12/24 13:04:23;;;;;;;0.50;0.50;;;12.60;53.90;;;;;;20841;6819;117765;-79
2023/12/24 13:06:50;;;;;;;0.60;0.60;;;12.50;53.70;;;;;;20643;6819;276667;-79
2023/12/24 13:09:15;;;;;;;0.70;0.70;;;12.60;54.10;;;;;;20808;6819;117020;-79
2023/12/24 13:11:41;;;;;;;0.47;0.47;;;12.40;53.90;;;;;;20856;6819;117462;-79
2023/12/24 13:14:06;;;;;;;0.57;0.57;;;12.20;54.20;;;;;;20616;6819;336002;-79